Terminal Aerodrome Forecast
Issued by NWS Charleston, SC

Home | Current Version | Previous Version | Text Only | Print | Product List | Glossary On
Versions: 1 2 3 4 5 6 7 8 9 10 11 12 13 14 15 16
000
FTUS42 KCHS 231135
TAFSAV
TAF
KSAV 231135Z 2312/2412 05006KT P6SM SCT015 BKN250
     FM231500 07011KT P6SM BKN045
     FM232300 03003KT P6SM FEW030
     FM240900 02004KT 3SM BR SCT003=

USA.gov is the U.S. government's official web portal to all federal, state and local government web resources and services.